LFOP

Details ICAO LFOP (URO)
Name Rouen Vallee de la Seine
Region France
Timezone Europe/Paris (UTC+1.0)
Plans Departing 59
Arriving 82
Stats Elevation 512 ft / 156 m (AMSL)
Location 49.385211° 1.176192°
Runways 1
Magnetic Variation 0.183° E
Sunrise 2017-12-11 07:42:24 UTC / 2017-12-11 08:42:24 Local
Sunset 2017-12-11 15:57:37 UTC / 2017-12-11 16:57:37 Local
Advertisement - Login to hide

Runways

ID Width Length Bearing (true) Bearing (mag) Surface Threshold Offset Overrun Length
04 148 ft / 45 m 5,577 ft / 1,700 m 41.28° 41.10° Asphalt 0 ft / 0 m 0 ft / 0 m
22 148 ft / 45 m 5,577 ft / 1,700 m 221.29° 221.11° Asphalt 0 ft / 0 m 0 ft / 0 m

Approach Navaids

Runway Type Ident Frequency Range Bearing (true) Bearing (mag) Slope Elevation
22 Localiser RN 110.50 MHz 18 nm / 33 km 221.27° 221.09° - 512 ft / 156 m (AMSL)
22 Glidescope RN 110.50 MHz 10 nm / 19 km 221.28° 221.10° 3.00° 512 ft / 156 m (AMSL)
22 DME RN 110.50 MHz 18 nm / 33 km - - - 571 ft / 174 m (AMSL)

Map

Weather


0- 5 10 15 20 25 30 35+ Temperature / ° C

Clouds and Precipitation
Forecast for 2017-12-12 00:00 UTC. Updated 2 hours ago

Ground ~20,000 ft ~40,000 ft Winds

METAR

LFOP 112300Z AUTO 29008KT 9999 SCT029 02/00 Q0997

TAF

TAF LFOP 112126Z 1121/1218 CNL

Frequencies

Recorded 120.72 MHz ATIS
Approach 118.57 MHz ROUEN APP
Tower 120.20 MHz ROUEN TWR
Warning: Do not use this data for real-world aviation or navigation. No guarantee of current accuracy is given.